createdAt,value
2022-12-16T00:03:03.060Z,27.15
2022-12-16T00:05:29.922Z,28.23
2022-12-16T00:07:56.619Z,29.38
2022-12-16T00:11:00.492Z,28.75
2022-12-16T00:13:27.646Z,29.02
2022-12-16T00:15:54.384Z,27.50
2022-12-16T00:18:21.430Z,27.83
2022-12-16T00:20:48.910Z,29.20
2022-12-16T00:23:15.942Z,29.25
2022-12-16T00:25:43.461Z,29.00
2022-12-16T00:28:10.646Z,31.77
2022-12-16T00:30:37.438Z,31.25
2022-12-16T00:33:04.860Z,27.05
2022-12-16T00:35:31.718Z,23.58
2022-12-16T00:37:58.400Z,20.23
2022-12-16T00:40:25.293Z,20.83
2022-12-16T00:42:52.284Z,19.50
2022-12-16T00:45:19.039Z,20.58
2022-12-16T00:47:45.609Z,21.63
2022-12-16T00:50:12.753Z,20.77
2022-12-16T00:52:39.399Z,22.05
2022-12-16T00:55:06.277Z,24.88
2022-12-16T00:57:32.933Z,25.85
2022-12-16T00:59:59.706Z,25.48
2022-12-16T01:02:26.532Z,24.83
2022-12-16T01:04:53.930Z,25.70
2022-12-16T01:07:21.500Z,23.92
2022-12-16T01:09:48.145Z,23.38
2022-12-16T01:12:14.857Z,24.70
2022-12-16T01:14:41.500Z,25.05
2022-12-16T01:17:08.144Z,23.25
2022-12-16T01:19:34.792Z,23.80
2022-12-16T01:22:01.439Z,24.58
2022-12-16T01:24:28.041Z,23.42
2022-12-16T01:29:20.080Z,23.52
2022-12-16T01:31:46.884Z,21.27
2022-12-16T01:34:13.588Z,21.38
2022-12-16T01:36:40.262Z,19.77
2022-12-16T01:39:06.901Z,19.42
2022-12-16T01:44:13.148Z,18.90
2022-12-16T01:49:10.011Z,20.02
2022-12-16T01:51:38.448Z,19.90
2022-12-16T01:54:05.101Z,18.80
2022-12-16T01:56:33.252Z,19.25
2022-12-16T01:59:00.586Z,18.63
2022-12-16T02:01:27.612Z,19.73
2022-12-16T02:03:55.170Z,21.23
2022-12-16T02:06:22.269Z,22.10
2022-12-16T02:08:50.842Z,20.50
2022-12-16T02:11:37.833Z,18.00
2022-12-16T02:14:23.267Z,18.65
2022-12-16T02:16:55.579Z,17.90
2022-12-16T02:19:40.522Z,16.23
2022-12-16T02:22:07.180Z,15.52
2022-12-16T02:24:52.571Z,16.77
2022-12-16T02:27:45.050Z,15.65
2022-12-16T02:30:26.643Z,15.15
2022-12-16T02:32:53.324Z,15.48
2022-12-16T02:35:38.741Z,16.58
2022-12-16T02:38:18.111Z,16.98
2022-12-16T02:40:54.469Z,15.45
2022-12-16T02:43:21.452Z,16.17
2022-12-16T02:45:49.083Z,15.88
2022-12-16T02:48:16.105Z,16.05
2022-12-16T02:50:45.593Z,15.73
2022-12-16T02:53:12.644Z,16.23
2022-12-16T02:58:10.741Z,15.43
2022-12-16T03:05:41.094Z,15.10
2022-12-16T03:08:09.949Z,15.73
2022-12-16T03:10:43.217Z,16.52
2022-12-16T03:13:11.013Z,16.83
2022-12-16T03:15:39.624Z,17.70
2022-12-16T03:18:08.032Z,19.65
2022-12-16T03:23:10.217Z,18.67
2022-12-16T03:25:39.061Z,18.40
2022-12-16T03:28:21.085Z,17.55
2022-12-16T03:30:51.864Z,16.63
2022-12-16T03:33:30.329Z,17.27
2022-12-16T03:35:59.844Z,16.80
2022-12-16T03:38:27.505Z,16.88
2022-12-16T03:40:55.568Z,16.63
2022-12-16T03:43:23.124Z,16.40
2022-12-16T03:45:51.917Z,18.35
2022-12-16T03:48:22.742Z,16.13
2022-12-16T03:50:49.435Z,16.77
2022-12-16T03:53:16.121Z,17.25
2022-12-16T03:55:42.724Z,16.73
2022-12-16T03:58:09.397Z,17.55
2022-12-16T04:03:01.609Z,17.08
2022-12-16T04:05:28.698Z,17.67
2022-12-16T04:08:00.297Z,16.95
2022-12-16T04:10:47.163Z,21.38
2022-12-16T04:13:32.791Z,22.02
2022-12-16T04:16:18.575Z,26.52
2022-12-16T04:19:03.985Z,31.52
2022-12-16T04:24:19.880Z,21.67
2022-12-16T04:27:09.245Z,20.27
2022-12-16T04:30:00.092Z,19.95
2022-12-16T04:34:52.866Z,17.47
2022-12-16T04:37:37.850Z,17.90
2022-12-16T04:40:23.453Z,17.55
2022-12-16T04:48:46.982Z,21.63
2022-12-16T04:51:32.174Z,25.15
2022-12-16T04:54:17.265Z,22.60
2022-12-16T04:57:02.378Z,17.88
2022-12-16T04:59:47.465Z,15.88
2022-12-16T05:02:32.978Z,16.20
2022-12-16T05:05:18.326Z,17.10
2022-12-16T05:10:47.365Z,15.52
2022-12-16T05:16:16.590Z,15.75
2022-12-16T05:19:01.816Z,17.38
2022-12-16T05:21:47.149Z,18.35
2022-12-16T05:32:43.950Z,23.33
2022-12-16T05:35:29.237Z,21.15
2022-12-16T05:38:14.733Z,18.15
2022-12-16T05:41:05.918Z,17.35
2022-12-16T05:43:50.990Z,15.82
2022-12-16T05:46:36.362Z,17.10
2022-12-16T05:49:21.650Z,19.07
2022-12-16T05:54:50.433Z,26.15
2022-12-16T05:57:35.787Z,29.05
2022-12-16T06:00:21.170Z,29.40
2022-12-16T06:03:08.276Z,27.02
2022-12-16T06:05:53.723Z,28.63
2022-12-16T06:08:39.130Z,30.25
2022-12-16T06:11:24.401Z,31.25
2022-12-16T06:14:09.549Z,24.20
2022-12-16T06:16:54.820Z,24.70
2022-12-16T06:19:40.242Z,24.83
2022-12-16T06:22:25.376Z,23.00
2022-12-16T06:27:54.094Z,26.27
2022-12-16T06:33:23.451Z,24.20
2022-12-16T06:36:08.809Z,25.63
2022-12-16T06:38:53.858Z,25.92
2022-12-16T06:41:38.994Z,27.92
2022-12-16T06:47:08.114Z,30.80
2022-12-16T06:49:53.145Z,27.25
2022-12-16T06:52:38.487Z,24.00
2022-12-16T06:55:24.018Z,24.80
2022-12-16T06:58:14.816Z,28.77
2022-12-16T07:03:44.225Z,24.15
2022-12-16T07:06:29.660Z,21.60
2022-12-16T07:09:14.553Z,21.73
2022-12-16T07:14:43.689Z,19.63
2022-12-16T07:17:29.033Z,28.42
2022-12-16T07:19:55.644Z,28.77
2022-12-16T07:22:40.758Z,29.48
2022-12-16T07:25:26.085Z,28.90
2022-12-16T07:30:55.229Z,27.08
2022-12-16T07:33:40.298Z,21.63
2022-12-16T07:39:09.489Z,18.58
2022-12-16T07:47:23.021Z,19.15
2022-12-16T07:50:09.321Z,17.33
2022-12-16T07:52:55.484Z,16.17
2022-12-16T07:55:40.589Z,23.75
2022-12-16T07:58:25.820Z,30.35
2022-12-16T08:01:11.037Z,25.20
2022-12-16T08:09:24.255Z,20.60
2022-12-16T08:12:09.330Z,19.98
2022-12-16T08:14:54.310Z,23.45
2022-12-16T08:20:26.335Z,19.02
2022-12-16T08:23:11.386Z,21.58
2022-12-16T08:29:05.511Z,22.33
2022-12-16T08:34:43.234Z,19.73
2022-12-16T08:37:28.434Z,19.05
2022-12-16T08:40:34.483Z,19.73
2022-12-16T08:43:18.785Z,20.42
2022-12-16T08:46:04.069Z,23.90
2022-12-16T08:51:33.571Z,24.27
2022-12-16T08:57:02.520Z,21.58
2022-12-16T08:59:48.853Z,21.98
2022-12-16T09:02:35.274Z,24.45
2022-12-16T09:08:04.988Z,25.65
2022-12-16T09:10:50.352Z,27.77
2022-12-16T09:13:35.822Z,24.00
2022-12-16T09:16:21.506Z,23.70
2022-12-16T09:19:06.641Z,22.70
2022-12-16T09:24:36.298Z,19.88
2022-12-16T09:32:49.065Z,19.98
2022-12-16T09:35:34.568Z,20.75
2022-12-16T09:38:19.653Z,21.85
2022-12-16T09:41:05.070Z,20.85
2022-12-16T09:44:02.378Z,21.63
2022-12-16T09:46:53.961Z,22.25
2022-12-16T09:50:04.616Z,23.15
2022-12-16T09:52:52.481Z,22.83
2022-12-16T09:58:31.589Z,20.85
2022-12-16T10:01:16.923Z,20.50
2022-12-16T10:04:02.528Z,19.95
2022-12-16T10:07:00.151Z,19.75
2022-12-16T10:21:29.025Z,35.20
2022-12-16T10:24:32.791Z,35.88
2022-12-16T10:27:59.360Z,34.50
2022-12-16T10:30:44.503Z,33.35
2022-12-16T10:41:59.739Z,24.55
2022-12-16T10:47:30.033Z,23.38
2022-12-16T10:50:15.618Z,21.55
2022-12-16T10:53:10.236Z,21.10
2022-12-16T10:58:52.561Z,20.05
2022-12-16T11:01:41.884Z,19.98
2022-12-16T11:04:46.190Z,18.98
2022-12-16T11:07:49.570Z,18.73
2022-12-16T11:10:46.869Z,19.83
2022-12-16T11:13:39.847Z,24.33
2022-12-16T11:22:35.999Z,28.33
2022-12-16T11:25:38.375Z,28.15
2022-12-16T11:34:00.593Z,22.25
2022-12-16T11:36:45.914Z,21.60
2022-12-16T11:45:06.743Z,25.58
2022-12-16T11:47:59.918Z,24.55
2022-12-16T11:53:36.578Z,25.77
2022-12-16T11:59:22.068Z,21.80
2022-12-16T12:10:30.330Z,22.55
2022-12-16T12:16:45.122Z,23.02
2022-12-16T12:25:19.637Z,21.30
2022-12-16T12:28:07.918Z,21.83
2022-12-16T12:30:57.533Z,23.35
2022-12-16T12:33:49.192Z,20.30
2022-12-16T12:39:27.620Z,17.88
2022-12-16T12:42:21.993Z,19.48
2022-12-16T12:45:13.554Z,17.10
2022-12-16T12:48:01.568Z,16.90
2022-12-16T12:50:50.033Z,14.50
2022-12-16T12:53:52.023Z,13.57
2022-12-16T12:56:57.082Z,16.33
2022-12-16T13:02:39.657Z,15.80
2022-12-16T13:05:29.896Z,16.95
2022-12-16T13:08:34.667Z,20.23
2022-12-16T13:11:37.865Z,21.20
2022-12-16T13:20:47.993Z,18.23
2022-12-16T13:23:59.377Z,19.25
2022-12-16T13:26:48.787Z,19.52
2022-12-16T13:29:40.189Z,21.63
2022-12-16T13:32:25.550Z,19.58
2022-12-16T13:35:22.812Z,17.48
2022-12-16T13:38:30.592Z,13.98
2022-12-16T13:41:17.298Z,12.40
2022-12-16T13:52:46.860Z,9.25
2022-12-16T14:01:13.189Z,10.40
2022-12-16T14:04:00.759Z,9.75
2022-12-16T14:06:48.063Z,9.45
2022-12-16T14:09:48.761Z,8.80
2022-12-16T14:12:40.786Z,9.27
2022-12-16T14:15:38.895Z,8.07
2022-12-16T14:18:45.198Z,7.90
2022-12-16T14:21:34.183Z,7.50
2022-12-16T14:24:32.279Z,11.15
2022-12-16T14:27:17.767Z,8.90
2022-12-16T14:30:03.063Z,11.23
2022-12-16T14:32:50.241Z,9.82
2022-12-16T14:35:40.210Z,8.95
2022-12-16T14:41:38.418Z,9.30
2022-12-16T14:47:24.003Z,5.93
2022-12-16T14:50:21.862Z,6.57
2022-12-16T14:53:06.975Z,6.32
2022-12-16T14:58:41.629Z,5.93
2022-12-16T15:10:05.471Z,8.38
2022-12-16T15:12:55.974Z,6.88
2022-12-16T15:21:25.929Z,6.95
2022-12-16T15:24:11.485Z,7.33
2022-12-16T15:29:43.702Z,7.10
2022-12-16T15:32:44.262Z,8.40
2022-12-16T15:43:48.152Z,7.90
2022-12-16T15:49:23.083Z,9.13
2022-12-16T15:57:51.131Z,10.25
2022-12-16T16:00:46.976Z,8.55
2022-12-16T16:03:42.195Z,8.77
2022-12-16T16:06:41.258Z,10.52
2022-12-16T16:12:47.685Z,6.85
2022-12-16T16:18:19.547Z,7.18
2022-12-16T16:23:49.756Z,7.22
2022-12-16T16:26:36.184Z,7.30
2022-12-16T16:29:21.711Z,7.65
2022-12-16T16:37:35.434Z,7.88
2022-12-16T16:40:32.324Z,7.40
2022-12-16T16:49:09.953Z,10.35
2022-12-16T17:05:56.908Z,10.25
2022-12-16T17:08:42.505Z,11.20
2022-12-16T17:11:41.914Z,10.60
2022-12-16T17:14:30.093Z,11.77
2022-12-16T17:19:59.061Z,13.05
2022-12-16T17:22:44.554Z,18.70
2022-12-16T17:25:32.668Z,24.75
2022-12-16T17:33:48.721Z,35.38
2022-12-16T17:36:37.637Z,40.15
2022-12-16T18:04:20.175Z,39.10
2022-12-16T18:18:22.562Z,28.52
2022-12-16T18:21:07.808Z,29.38
2022-12-16T18:23:52.943Z,37.95
2022-12-16T18:26:38.366Z,34.83
2022-12-16T18:29:23.668Z,35.53
2022-12-16T18:32:09.047Z,35.50
2022-12-16T18:34:54.040Z,37.63
2022-12-16T18:37:39.420Z,47.22
2022-12-16T18:40:25.159Z,48.95
2022-12-16T18:45:54.068Z,36.00
2022-12-16T18:48:58.249Z,28.45
2022-12-16T18:51:43.506Z,21.90
2022-12-16T19:02:40.711Z,32.17
2022-12-16T19:08:14.249Z,34.08
2022-12-16T19:13:43.839Z,30.08
2022-12-16T19:16:29.193Z,27.73
2022-12-16T19:19:19.622Z,24.95
2022-12-16T19:30:18.002Z,21.33
2022-12-16T19:35:50.142Z,25.15
2022-12-16T19:38:35.146Z,23.65
2022-12-16T19:41:20.361Z,23.70
2022-12-16T19:44:06.721Z,26.80
2022-12-16T19:49:39.396Z,31.27
2022-12-16T19:52:28.901Z,31.27
2022-12-16T19:55:17.217Z,30.45
2022-12-16T19:58:03.085Z,26.77
2022-12-16T20:00:48.451Z,24.00
2022-12-16T20:14:37.330Z,25.70
2022-12-16T20:17:22.538Z,23.08
2022-12-16T20:20:07.576Z,21.10
2022-12-16T20:22:52.610Z,23.60
2022-12-16T20:25:41.574Z,27.60
2022-12-16T20:28:26.746Z,33.67
2022-12-16T20:31:12.086Z,33.78
2022-12-16T20:36:41.056Z,30.02
2022-12-16T20:39:28.270Z,27.88
2022-12-16T20:42:13.259Z,28.13
2022-12-16T20:47:42.660Z,26.65
2022-12-16T20:50:27.977Z,26.70
2022-12-16T20:53:13.427Z,25.83
2022-12-16T20:55:58.809Z,27.08
2022-12-16T20:58:44.197Z,28.60
2022-12-16T21:04:26.905Z,32.03
2022-12-16T21:09:56.235Z,36.40
2022-12-16T21:12:41.601Z,39.83
2022-12-16T21:15:27.081Z,40.20
2022-12-16T21:18:12.116Z,36.67
2022-12-16T21:20:57.009Z,33.78
2022-12-16T21:26:26.311Z,31.45
2022-12-16T21:29:11.349Z,31.88
2022-12-16T21:31:56.467Z,31.95
2022-12-16T21:34:41.680Z,30.05
2022-12-16T21:37:27.041Z,29.90
2022-12-16T21:40:12.167Z,28.52
2022-12-16T21:42:57.254Z,28.85
2022-12-16T21:45:42.512Z,29.35
2022-12-16T21:53:57.595Z,32.45
2022-12-16T21:56:43.677Z,37.15
2022-12-16T21:59:28.976Z,41.55
2022-12-16T22:05:17.787Z,40.90
2022-12-16T22:10:47.523Z,43.72
2022-12-16T22:13:32.611Z,43.45
2022-12-16T22:16:18.528Z,44.28
2022-12-16T22:32:43.491Z,46.80
2022-12-16T22:35:28.721Z,47.75
2022-12-16T22:43:47.782Z,46.28
2022-12-16T22:54:44.912Z,51.97
2022-12-16T22:57:30.423Z,54.03
2022-12-16T23:00:15.524Z,44.97
2022-12-16T23:05:44.828Z,44.47
2022-12-16T23:08:42.382Z,41.13
2022-12-16T23:14:35.624Z,37.72
2022-12-16T23:22:51.831Z,36.95
2022-12-16T23:25:37.285Z,36.78
2022-12-16T23:28:22.438Z,34.97
2022-12-16T23:31:14.463Z,34.85
2022-12-16T23:33:59.455Z,32.15
2022-12-16T23:36:45.051Z,33.58
2022-12-16T23:42:14.419Z,34.53
2022-12-16T23:44:59.498Z,38.28
2022-12-16T23:50:29.104Z,43.50
2022-12-16T23:53:23.967Z,44.80
2022-12-16T23:56:08.978Z,45.63
2022-12-16T23:58:56.253Z,46.60
